Pagina principale
METAR-TAF:

METAR-TAF

Aeroporti :

Lahr, Germania

latitudine: 48-22-09N, longitudine: 007-49-40E, altezza: 156 m

Osservazione

Il bollettino è stato emesso 15 ore e 7 minuti fa, alle 15:50 UTC
Vento 1 kt da direzioni variabili
Temperature 4°C
Umidità 100%
Pressione 1004 hPa
Visibilità: 1500 m
Cielo coperto ad un'altezza di 300 ft
nebbia

METAR: EDTL 171550Z VRB01KT 1500 FG OVC003 04/04 Q1004

Ora: 07:57 (06:57 UTC)


TAF: mancante

Osservazioni e previsioni meteorologiche di più di 4000 aeroporti (messaggi METAR e TAF).

Le stazioni disponibili sono rappresentate dai dischi gialli e rossi sulla carta.

Puntare il mouse per vedere il nome della stazione.

Clicca sopra per visualizzare le osservazioni e previsioni meteorologiche.

Per cambiare la mappa : fare clic sui pulsanti verdi con una croce nera per ingrandire, il pulsante verde con un trattino per diminuire, o sulla freccia verde per le mappe adiacenti.


METAR-TAF: